Time;durP1;ratioP1;P1;durP2;ratioP2;P2;SDS_P1;SDS_P2;PMS_P1;PMS_P2;Temp;Humidity;BMP_temperature;BMP_pressure;BME280_temperature;BME280_humidity;BME280_pressure;Samples;Min_cycle;Max_cycle;Signal;HPM_P1;HPM_P2
2022/03/01 00:00:32;;;;;;;;;;;4.50;83.20;;;;;;4945994;28;20378;-89
2022/03/01 00:03:02;;;;;;;;;;;4.50;83.20;;;;;;4962111;28;19940;-89
2022/03/01 00:05:36;;;;;;;;;;;4.50;83.20;;;;;;4962543;28;19914;-87
2022/03/01 00:08:06;;;;;;;;;;;4.50;83.20;;;;;;4945439;28;19922;-89
2022/03/01 00:10:32;;;;;;;;;;;4.50;83.10;;;;;;4962013;28;19985;-89
2022/03/01 00:13:03;;;;;;;;;;;4.50;83.20;;;;;;4961475;28;20375;-88
2022/03/01 00:16:19;;;;;;;;;;;;;;;;;;;;;
2022/03/01 00:21:40;;;;;;;;;;;4.40;83.10;;;;;;4979343;28;19917;-90
2022/03/01 00:24:10;;;;;;;;;;;4.40;83.10;;;;;;4961879;28;20424;-88
2022/03/01 00:26:46;;;;;;;;;;;4.40;83.10;;;;;;4963069;28;20414;-88
2022/03/01 00:29:23;;;;;;;;;;;4.40;83.20;;;;;;4954862;28;19967;-89
2022/03/01 00:31:51;;;;;;;;;;;4.40;83.20;;;;;;4961851;28;19920;-88
2022/03/01 00:34:27;;;;;;;;;;;4.40;83.30;;;;;;4966347;28;19969;-92
2022/03/01 00:37:13;;;;;;;;;;;4.40;83.30;;;;;;4983033;28;19930;-89
2022/03/01 00:40:00;;;;;;;;;;;4.30;83.30;;;;;;4982826;28;19902;-88
2022/03/01 00:42:25;;;;;;;;;;;4.30;83.40;;;;;;4997060;28;19921;-89
2022/03/01 00:44:53;;;;;;;;;;;4.30;83.40;;;;;;4961992;28;20298;-88
2022/03/01 00:47:24;;;;;;;;;;;4.30;83.40;;;;;;4941790;29;20347;-90
2022/03/01 00:50:02;;;;;;;;;;;4.30;83.40;;;;;;4926005;29;19918;-89
2022/03/01 00:52:33;;;;;;;;;;;4.30;83.50;;;;;;4941931;29;19910;-89
2022/03/01 00:55:13;;;;;;;;;;;4.30;83.50;;;;;;4941862;29;19914;-88
2022/03/01 00:57:44;;;;;;;;;;;4.30;83.60;;;;;;4942672;29;20057;-88
2022/03/01 01:00:20;;;;;;;;;;;4.30;83.60;;;;;;4933966;28;19957;-87
2022/03/01 01:02:56;;;;;;;;;;;4.30;83.70;;;;;;4945673;28;19914;-89
2022/03/01 01:05:27;;;;;;;;;;;4.30;83.70;;;;;;4960694;28;19910;-89
2022/03/01 01:08:14;;;;;;;;;;;4.30;83.80;;;;;;4961247;28;19913;-89
2022/03/01 01:11:06;;;;;;;;;;;;;;;;;;;;;
2022/03/01 01:13:35;;;;;;;;;;;4.20;83.80;;;;;;4990376;28;20350;-88
2022/03/01 01:16:01;;;;;;;;;;;4.20;83.80;;;;;;4953147;28;19933;-88
2022/03/01 01:18:43;;;;;;;;;;;4.20;83.90;;;;;;4967343;28;20278;-87
2022/03/01 01:22:39;;;;;;;;;;;4.10;83.80;;;;;;4963323;28;19910;-88
2022/03/01 01:24:06;;;;;;;;;;;4.10;83.90;;;;;;4976122;28;19960;-90
2022/03/01 01:26:54;;;;;;;;;;;4.10;84.00;;;;;;4977699;28;19910;-88
2022/03/01 01:29:31;;;;;;;;;;;4.10;84.00;;;;;;4961759;28;19922;-89
2022/03/01 01:32:07;;;;;;;;;;;4.10;84.00;;;;;;4961887;28;20369;-89
2022/03/01 01:37:21;;;;;;;;;;;4.00;84.00;;;;;;4977636;28;20402;-88
2022/03/01 01:39:49;;;;;;;;;;;4.00;84.10;;;;;;4960755;28;19965;-89
2022/03/01 01:42:25;;;;;;;;;;;4.00;84.10;;;;;;4944006;28;19965;-88
2022/03/01 01:48:14;;;;;;;;;;;4.00;84.20;;;;;;4929247;28;20338;-87
2022/03/01 01:50:42;;;;;;;;;;;4.00;84.20;;;;;;4963592;28;20386;-88
2022/03/01 01:53:23;;;;;;;;;;;4.00;84.40;;;;;;4963453;28;19910;-88
2022/03/01 01:56:22;;;;;;;;;;;4.00;84.50;;;;;;4970605;28;20343;-89
2022/03/01 01:58:54;;;;;;;;;;;3.90;84.70;;;;;;4990263;28;19943;-88
2022/03/01 02:01:34;;;;;;;;;;;3.90;84.90;;;;;;4979551;28;19910;-91
2022/03/01 02:04:00;;;;;;;;;;;3.90;85.00;;;;;;4981158;28;19950;-89
2022/03/01 02:06:48;;;;;;;;;;;3.90;85.10;;;;;;4997418;28;19911;-89
2022/03/01 02:09:36;;;;;;;;;;;3.90;85.90;;;;;;4956717;28;19977;-89
2022/03/01 02:12:10;;;;;;;;;;;3.90;85.30;;;;;;4961023;28;19918;-87
2022/03/01 02:14:49;;;;;;;;;;;;;;;;;;;;;
2022/03/01 02:17:23;;;;;;;;;;;3.80;85.30;;;;;;4977288;28;19910;-89
2022/03/01 02:19:54;;;;;;;;;;;3.80;85.30;;;;;;4960118;28;19910;-91
2022/03/01 02:22:43;;;;;;;;;;;3.80;85.30;;;;;;4959757;28;19910;-88
2022/03/01 02:25:25;;;;;;;;;;;;;;;;;;;;;
2022/03/01 02:27:51;;;;;;;;;;;3.90;85.30;;;;;;4976640;28;19918;-88
2022/03/01 02:30:41;;;;;;;;;;;3.80;85.40;;;;;;4959646;28;19957;-88
2022/03/01 02:33:12;;;;;;;;;;;3.80;85.50;;;;;;4959952;28;19917;-88
2022/03/01 02:35:48;;;;;;;;;;;3.80;85.60;;;;;;4959511;28;19914;-88
2022/03/01 02:38:14;;;;;;;;;;;3.80;85.60;;;;;;4940110;29;19927;-88
2022/03/01 02:40:40;;;;;;;;;;;3.80;85.70;;;;;;4940502;29;19918;-89
2022/03/01 02:43:18;;;;;;;;;;;;;;;;;;;;;
2022/03/01 02:45:47;;;;;;;;;;;3.80;85.90;;;;;;4942113;29;19920;-88
2022/03/01 02:48:36;;;;;;;;;;;3.80;86.60;;;;;;4949713;28;19925;-90
2022/03/01 02:51:09;;;;;;;;;;;3.80;86.20;;;;;;4959947;28;19933;-89
2022/03/01 02:53:48;;;;;;;;;;;3.70;86.30;;;;;;4960232;28;19942;-89
2022/03/01 02:56:39;;;;;;;;;;;3.70;86.60;;;;;;4947549;28;19921;-88
2022/03/01 02:59:16;;;;;;;;;;;3.60;86.80;;;;;;4954501;28;19914;-90
2022/03/01 03:02:02;;;;;;;;;;;3.60;87.00;;;;;;4962977;28;19918;-88
2022/03/01 03:04:55;;;;;;;;;;;3.60;87.10;;;;;;4980482;28;19949;-89
2022/03/01 03:07:40;;;;;;;;;;;3.60;87.30;;;;;;4963115;28;19910;-89
2022/03/01 03:10:08;;;;;;;;;;;3.50;87.40;;;;;;4960718;28;20401;-90
2022/03/01 03:15:22;;;;;;;;;;;3.60;87.40;;;;;;4952484;28;19918;-89
2022/03/01 03:18:04;;;;;;;;;;;;;;;;;;;;;
2022/03/01 03:20:33;;;;;;;;;;;3.60;87.40;;;;;;4981342;28;20434;-90
2022/03/01 03:23:13;;;;;;;;;;;3.60;87.60;;;;;;4964040;28;20319;-90
2022/03/01 03:25:48;;;;;;;;;;;3.60;87.70;;;;;;4982407;28;19944;-91
2022/03/01 03:28:36;;;;;;;;;;;3.60;87.60;;;;;;4985255;28;19976;-90
2022/03/01 03:31:07;;;;;;;;;;;3.60;87.60;;;;;;4984551;28;19902;-90
2022/03/01 03:36:33;;;;;;;;;;;;;;;;;;;;;
2022/03/01 03:39:17;;;;;;;;;;;3.70;87.70;;;;;;4964135;28;19926;-88
2022/03/01 03:41:45;;;;;;;;;;;3.70;87.70;;;;;;4961976;28;19952;-89
2022/03/01 03:44:31;;;;;;;;;;;3.70;87.50;;;;;;4946781;28;19922;-89
2022/03/01 03:50:17;;;;;;;;;;;3.80;87.50;;;;;;4961864;28;19919;-89
2022/03/01 03:52:47;;;;;;;;;;;3.80;87.40;;;;;;4961992;28;19917;-89
2022/03/01 03:55:22;;;;;;;;;;;3.70;87.20;;;;;;4946764;28;19914;-90
2022/03/01 03:57:48;;;;;;;;;;;3.80;87.50;;;;;;4962442;28;19917;-89
2022/03/01 04:00:23;;;;;;;;;;;3.70;87.50;;;;;;4963091;28;19934;-90
2022/03/01 04:02:52;;;;;;;;;;;3.70;87.50;;;;;;4973597;28;19978;-90
2022/03/01 04:05:38;;;;;;;;;;;3.70;87.60;;;;;;4972792;28;20000;-90
2022/03/01 04:08:16;;;;;;;;;;;3.70;87.70;;;;;;4977166;28;19961;-87
2022/03/01 04:10:54;;;;;;;;;;;3.60;87.90;;;;;;4950035;28;19918;-89
2022/03/01 04:13:25;;;;;;;;;;;3.60;88.00;;;;;;4966098;28;19917;-88
2022/03/01 04:15:56;;;;;;;;;;;3.60;88.20;;;;;;4976930;28;19918;-89
2022/03/01 04:18:50;;;;;;;;;;;3.60;88.30;;;;;;4974971;28;20002;-90
2022/03/01 04:24:40;;;;;;;;;;;;;;;;;;;;;
2022/03/01 04:27:09;;;;;;;;;;;3.60;88.30;;;;;;4964611;28;20430;-88
2022/03/01 04:32:54;;;;;;;;;;;3.70;88.30;;;;;;4979252;28;19918;-89
2022/03/01 04:35:37;;;;;;;;;;;3.60;88.40;;;;;;4961615;28;19918;-88
2022/03/01 04:38:10;;;;;;;;;;;3.60;88.50;;;;;;4962011;28;20009;-88
2022/03/01 04:40:36;;;;;;;;;;;3.60;88.60;;;;;;4961096;28;20021;-88
2022/03/01 04:43:07;;;;;;;;;;;3.50;88.80;;;;;;4961748;28;19946;-90
2022/03/01 04:45:32;;;;;;;;;;;3.50;89.00;;;;;;4946844;28;19914;-88
2022/03/01 04:48:03;;;;;;;;;;;3.50;89.20;;;;;;4965467;28;19929;-88
2022/03/01 04:50:46;;;;;;;;;;;3.50;89.30;;;;;;4999004;28;19968;-88
2022/03/01 04:53:14;;;;;;;;;;;3.40;89.40;;;;;;4983036;28;19990;-88
2022/03/01 04:55:40;;;;;;;;;;;3.40;89.40;;;;;;4974152;28;20374;-90
2022/03/01 04:58:24;;;;;;;;;;;3.40;89.40;;;;;;4966260;28;19917;-90
2022/03/01 05:01:08;;;;;;;;;;;;;;;;;;;;;
2022/03/01 05:04:12;;;;;;;;;;;3.30;89.60;;;;;;4963284;28;19936;-90
2022/03/01 05:06:47;;;;;;;;;;;;;;;;;;;;;
2022/03/01 05:09:41;;;;;;;;;;;;;;;;;;;;;
2022/03/01 05:12:19;;;;;;;;;;;;;;;;;;;;;
2022/03/01 05:15:14;;;;;;;;;;;3.40;89.40;;;;;;4978818;28;19948;-88
2022/03/01 05:21:09;;;;;;;;;;;3.40;89.30;;;;;;4899021;29;19916;-90
2022/03/01 05:23:56;;;;;;;;;;;3.50;89.40;;;;;;4960484;28;20405;-87
2022/03/01 05:26:44;;;;;;;;;;;3.50;89.40;;;;;;4941715;29;20037;-89
2022/03/01 05:29:15;;;;;;;;;;;3.50;89.40;;;;;;4941094;29;19915;-89
2022/03/01 05:31:52;;;;;;;;;;;3.50;89.30;;;;;;4925459;29;20446;-87
2022/03/01 05:34:20;;;;;;;;;;;3.50;89.30;;;;;;4944165;28;19917;-87
2022/03/01 05:36:53;;;;;;;;;;;3.50;89.30;;;;;;4959803;28;19921;-90
2022/03/01 05:39:44;;;;;;;;;;;3.50;89.30;;;;;;4960089;28;20385;-89
2022/03/01 05:42:18;;;;;;;;;;;3.50;89.20;;;;;;4960664;28;19910;-88
2022/03/01 05:45:04;;;;;;;;;;;3.60;89.30;;;;;;4960479;28;20314;-88
2022/03/01 05:47:37;;;;;;;;;;;3.50;89.20;;;;;;4959573;28;19942;-90
2022/03/01 05:50:06;;;;;;;;;;;3.60;89.30;;;;;;4945449;28;19933;-88
2022/03/01 05:52:49;;;;;;;;;;;3.60;89.30;;;;;;4960051;28;19922;-88
2022/03/01 05:55:19;;;;;;;;;;;3.60;89.20;;;;;;4960642;28;19977;-88
2022/03/01 05:57:50;;;;;;;;;;;3.50;89.20;;;;;;4960053;28;20045;-88
2022/03/01 06:00:19;;;;;;;;;;;3.50;89.00;;;;;;4960195;28;19922;-89
2022/03/01 06:03:06;;;;;;;;;;;3.50;89.00;;;;;;4958846;28;19910;-89
2022/03/01 06:05:38;;;;;;;;;;;3.50;88.90;;;;;;4960703;28;20008;-88
2022/03/01 06:08:11;;;;;;;;;;;3.50;88.90;;;;;;4961004;28;19922;-87
2022/03/01 06:10:40;;;;;;;;;;;3.50;88.90;;;;;;4960744;28;19914;-87
2022/03/01 06:13:08;;;;;;;;;;;3.50;88.80;;;;;;4964994;28;19917;-90
2022/03/01 06:15:36;;;;;;;;;;;3.60;88.80;;;;;;4981985;28;19905;-87
2022/03/01 06:18:10;;;;;;;;;;;3.60;88.80;;;;;;4966847;28;19902;-88
2022/03/01 06:20:44;;;;;;;;;;;3.60;88.70;;;;;;4982340;28;19939;-86
2022/03/01 06:23:12;;;;;;;;;;;3.60;88.60;;;;;;4948537;28;19918;-87
2022/03/01 06:25:45;;;;;;;;;;;3.60;88.60;;;;;;4940206;29;20458;-87
2022/03/01 06:28:16;;;;;;;;;;;3.60;89.20;;;;;;4941666;29;20315;-87
2022/03/01 06:30:41;;;;;;;;;;;3.60;88.60;;;;;;4942641;29;20442;-87
2022/03/01 06:33:20;;;;;;;;;;;;;;;;;;;;;
2022/03/01 06:35:46;;;;;;;;;;;3.70;88.60;;;;;;4961651;28;19919;-90
2022/03/01 06:38:14;;;;;;;;;;;3.70;88.60;;;;;;4963004;28;19976;-88
2022/03/01 06:40:56;;;;;;;;;;;3.70;88.60;;;;;;4963055;28;20005;-88
2022/03/01 06:43:49;;;;;;;;;;;3.80;88.60;;;;;;4964126;28;19910;-87
2022/03/01 06:46:15;;;;;;;;;;;3.70;88.50;;;;;;4960505;28;20273;-89
2022/03/01 06:51:47;;;;;;;;;;;;;;;;;;;;;
2022/03/01 06:57:18;;;;;;;;;;;3.80;88.40;;;;;;4981414;28;19914;-88
2022/03/01 06:59:46;;;;;;;;;;;3.80;88.40;;;;;;4963290;28;19910;-88
2022/03/01 07:02:13;;;;;;;;;;;3.80;88.40;;;;;;4959609;29;19914;-88
2022/03/01 07:04:41;;;;;;;;;;;3.80;88.50;;;;;;4959244;29;19926;-87
2022/03/01 07:07:16;;;;;;;;;;;3.80;88.40;;;;;;4961180;29;19926;-87
2022/03/01 07:09:47;;;;;;;;;;;3.80;88.50;;;;;;4961028;28;19918;-87
2022/03/01 07:12:15;;;;;;;;;;;3.80;88.60;;;;;;4945371;28;19918;-89
2022/03/01 07:14:59;;;;;;;;;;;;;;;;;;;;;
2022/03/01 07:17:32;;;;;;;;;;;3.80;88.60;;;;;;4980729;28;19988;-87
2022/03/01 07:20:13;;;;;;;;;;;;;;;;;;;;;
2022/03/01 07:23:02;;;;;;;;;;;3.90;88.60;;;;;;4994232;28;20393;-87
2022/03/01 07:25:40;;;;;;;;;;;3.90;88.60;;;;;;4974055;28;20021;-88
2022/03/01 07:28:15;;;;;;;;;;;3.90;88.60;;;;;;4948635;28;19974;-87
2022/03/01 07:33:40;;;;;;;;;;;4.00;88.70;;;;;;4967314;28;20006;-87
2022/03/01 07:38:55;;;;;;;;;;;4.10;88.70;;;;;;4967587;28;19934;-93
2022/03/01 07:44:29;;;;;;;;;;;4.10;88.60;;;;;;4918491;29;20422;-89
2022/03/01 07:47:05;;;;;;;;;;;4.20;88.70;;;;;;4956353;29;19911;-87
2022/03/01 07:49:51;;;;;;;;;;;4.20;88.80;;;;;;4946814;28;19922;-88
2022/03/01 07:52:29;;;;;;;;;;;4.20;88.80;;;;;;4962721;28;19918;-87
2022/03/01 07:55:03;;;;;;;;;;;4.30;88.90;;;;;;4962399;28;19910;-89
2022/03/01 07:57:31;;;;;;;;;;;4.30;88.70;;;;;;4962779;28;19910;-88
2022/03/01 07:59:57;;;;;;;;;;;4.40;88.70;;;;;;4963649;28;19942;-88
2022/03/01 08:02:32;;;;;;;;;;;4.40;88.50;;;;;;4964740;28;19933;-87
2022/03/01 08:05:13;;;;;;;;;;;;;;;;;;;;;
2022/03/01 08:08:14;;;;;;;;;;;4.50;88.50;;;;;;4957611;28;19922;-88
2022/03/01 08:11:00;;;;;;;;;;;4.50;88.40;;;;;;4962002;28;20013;-87
2022/03/01 08:13:46;;;;;;;;;;;4.60;88.40;;;;;;4962668;28;19917;-88
2022/03/01 08:19:31;;;;;;;;;;;;;;;;;;;;;
2022/03/01 08:22:10;;;;;;;;;;;;;;;;;;;;;
2022/03/01 08:24:51;;;;;;;;;;;;;;;;;;;;;
2022/03/01 08:27:36;;;;;;;;;;;;;;;;;;;;;
2022/03/01 08:30:31;;;;;;;;;;;4.80;88.00;;;;;;4898020;29;19930;-89
2022/03/01 08:33:03;;;;;;;;;;;4.80;87.80;;;;;;4943564;29;19914;-90
2022/03/01 08:35:57;;;;;;;;;;;;;;;;;;;;;
2022/03/01 08:38:26;;;;;;;;;;;4.90;87.90;;;;;;4962035;29;19991;-90
2022/03/01 08:40:59;;;;;;;;;;;4.90;87.90;;;;;;4951697;29;19914;-88
2022/03/01 08:43:28;;;;;;;;;;;4.90;87.90;;;;;;4927547;29;19915;-88
2022/03/01 08:46:14;;;;;;;;;;;;;;;;;;;;;
2022/03/01 08:49:10;;;;;;;;;;;;;;;;;;;;;
2022/03/01 08:51:36;;;;;;;;;;;5.10;87.90;;;;;;4961268;28;20346;-89
2022/03/01 08:54:27;;;;;;;;;;;5.10;87.90;;;;;;4963130;28;19961;-87
2022/03/01 08:56:55;;;;;;;;;;;5.20;87.90;;;;;;4960183;28;19914;-86
2022/03/01 08:59:25;;;;;;;;;;;5.20;87.80;;;;;;4950186;28;19925;-86
2022/03/01 09:02:06;;;;;;;;;;;;;;;;;;;;;
2022/03/01 09:08:00;;;;;;;;;;;;;;;;;;;;;
2022/03/01 09:10:52;;;;;;;;;;;;;;;;;;;;;
2022/03/01 09:16:38;;;;;;;;;;;5.50;87.30;;;;;;4950882;28;19971;-88
2022/03/01 09:19:08;;;;;;;;;;;5.50;87.30;;;;;;4960207;28;20327;-86
2022/03/01 09:21:34;;;;;;;;;;;5.60;87.20;;;;;;4959912;28;20374;-86
2022/03/01 09:24:09;;;;;;;;;;;5.70;87.30;;;;;;4959786;28;19910;-88
2022/03/01 09:26:55;;;;;;;;;;;;;;;;;;;;;
2022/03/01 09:32:17;;;;;;;;;;;5.80;87.10;;;;;;4960200;28;20290;-87
2022/03/01 09:34:58;;;;;;;;;;;5.90;87.20;;;;;;4944639;28;19969;-88
2022/03/01 09:37:24;;;;;;;;;;;6.00;87.10;;;;;;4960305;28;19937;-88
2022/03/01 09:40:08;;;;;;;;;;;;;;;;;;;;;
2022/03/01 09:42:40;;;;;;;;;;;6.10;87.00;;;;;;4977831;28;19917;-88
2022/03/01 09:45:11;;;;;;;;;;;6.20;87.00;;;;;;4960636;28;19937;-87
2022/03/01 09:47:55;;;;;;;;;;;6.30;86.90;;;;;;4961255;28;19957;-88
2022/03/01 09:50:30;;;;;;;;;;;6.30;86.80;;;;;;4946792;28;19930;-89
2022/03/01 09:53:18;;;;;;;;;;;6.30;86.70;;;;;;4945109;28;19914;-88
2022/03/01 09:56:04;;;;;;;;;;;;;;;;;;;;;
2022/03/01 09:59:01;;;;;;;;;;;6.40;86.30;;;;;;4977492;28;20262;-87
2022/03/01 10:01:52;;;;;;;;;;;6.50;86.30;;;;;;4959832;28;19921;-88
2022/03/01 10:04:27;;;;;;;;;;;6.50;86.10;;;;;;4962460;28;20413;-89
2022/03/01 10:09:54;;;;;;;;;;;;;;;;;;;;;
2022/03/01 10:12:42;;;;;;;;;;;;;;;;;;;;;
2022/03/01 10:15:16;;;;;;;;;;;6.80;85.60;;;;;;4982780;28;19993;-89
2022/03/01 10:17:48;;;;;;;;;;;6.80;85.60;;;;;;4964754;28;19936;-89
2022/03/01 10:20:39;;;;;;;;;;;6.90;85.20;;;;;;4966033;28;19920;-89
2022/03/01 10:23:29;;;;;;;;;;;7.00;84.80;;;;;;4960921;29;19910;-88
2022/03/01 10:29:24;;;;;;;;;;;7.20;84.20;;;;;;4970456;29;19918;-89
2022/03/01 10:38:44;;;;;;;;;;;;;;;;;;;;;
2022/03/01 10:47:21;;;;;;;;;;;7.60;84.00;;;;;;4885385;29;19916;-89
2022/03/01 10:50:14;;;;;;;;;;;7.70;83.90;;;;;;4869437;29;19981;-88
2022/03/01 10:52:47;;;;;;;;;;;7.70;83.90;;;;;;4901399;29;19915;-89
2022/03/01 10:55:28;;;;;;;;;;;7.80;83.50;;;;;;4920467;29;19965;-88
2022/03/01 10:58:01;;;;;;;;;;;7.80;83.30;;;;;;4904354;29;19959;-88
2022/03/01 11:00:48;;;;;;;;;;;7.90;83.40;;;;;;4902499;29;19912;-87
2022/03/01 11:06:05;;;;;;;;;;;8.00;83.50;;;;;;4959761;29;19914;-89
2022/03/01 11:09:04;;;;;;;;;;;;;;;;;;;;;
2022/03/01 11:11:51;;;;;;;;;;;8.10;83.40;;;;;;4956024;29;19921;-88
2022/03/01 11:14:34;;;;;;;;;;;;;;;;;;;;;
2022/03/01 11:20:42;;;;;;;;;;;;;;;;;;;;;
2022/03/01 11:23:46;;;;;;;;;;;8.30;82.60;;;;;;4953891;29;19917;-88
2022/03/01 11:29:22;;;;;;;;;;;8.40;81.10;;;;;;4948952;29;20371;-88
2022/03/01 11:32:02;;;;;;;;;;;8.50;81.20;;;;;;4961470;28;19915;-87
2022/03/01 11:35:11;;;;;;;;;;;8.50;81.50;;;;;;4962388;28;19914;-91
2022/03/01 11:37:37;;;;;;;;;;;8.50;81.70;;;;;;4979001;28;19916;-88
2022/03/01 11:40:25;;;;;;;;;;;8.60;81.40;;;;;;4961853;28;19996;-89
2022/03/01 11:43:14;;;;;;;;;;;8.60;80.80;;;;;;4979210;28;19977;-87
2022/03/01 11:46:01;;;;;;;;;;;8.70;81.20;;;;;;4962132;28;19917;-88
2022/03/01 11:48:48;;;;;;;;;;;8.70;81.40;;;;;;4979603;28;20001;-89
2022/03/01 11:51:40;;;;;;;;;;;8.70;81.50;;;;;;4962634;28;19914;-87
2022/03/01 11:57:23;;;;;;;;;;;8.80;80.90;;;;;;4982575;28;19910;-87
2022/03/01 11:59:57;;;;;;;;;;;8.80;81.00;;;;;;4962648;28;20417;-88
2022/03/01 12:02:27;;;;;;;;;;;8.80;81.10;;;;;;4980031;28;19922;-89
2022/03/01 12:05:02;;;;;;;;;;;8.90;81.20;;;;;;4963904;28;19980;-87
2022/03/01 12:07:38;;;;;;;;;;;8.90;81.10;;;;;;4997912;28;19914;-89
2022/03/01 12:10:28;;;;;;;;;;;;;;;;;;;;;
2022/03/01 12:16:17;;;;;;;;;;;9.00;81.00;;;;;;4969800;28;20350;-86
2022/03/01 12:18:54;;;;;;;;;;;9.10;80.90;;;;;;4961437;28;19914;-89
2022/03/01 12:21:36;;;;;;;;;;;9.10;80.90;;;;;;4960897;28;19910;-89
2022/03/01 12:24:20;;;;;;;;;;;9.10;81.00;;;;;;4961666;28;19914;-87
2022/03/01 12:27:01;;;;;;;;;;;9.20;80.70;;;;;;4960158;28;19984;-89
2022/03/01 12:29:31;;;;;;;;;;;9.20;80.70;;;;;;4960792;28;19973;-89
2022/03/01 12:32:23;;;;;;;;;;;9.30;80.70;;;;;;4961336;28;19965;-89
2022/03/01 12:35:02;;;;;;;;;;;;;;;;;;;;;
2022/03/01 12:40:34;;;;;;;;;;;9.40;80.30;;;;;;4899126;29;20301;-88
2022/03/01 12:43:11;;;;;;;;;;;9.40;80.30;;;;;;4950907;29;19922;-88
2022/03/01 12:45:39;;;;;;;;;;;9.50;80.20;;;;;;4942113;29;19911;-88
2022/03/01 12:48:11;;;;;;;;;;;9.50;80.00;;;;;;4941517;29;19915;-88
2022/03/01 12:56:50;;;;;;;;;;;9.60;80.00;;;;;;4949427;28;19916;-88
2022/03/01 12:59:32;;;;;;;;;;;;;;;;;;;;;
2022/03/01 13:02:11;;;;;;;;;;;9.70;78.90;;;;;;4977280;28;19911;-88
2022/03/01 13:04:49;;;;;;;;;;;;;;;;;;;;;
2022/03/01 13:07:51;;;;;;;;;;;9.70;78.70;;;;;;4961492;28;19921;-89
2022/03/01 13:23:14;;;;;;;;;;;;;;;;;;;;;
2022/03/01 13:26:09;;;;;;;;;;;9.80;77.70;;;;;;4864643;29;19983;-85
2022/03/01 13:38:05;;;;;;;;;;;;;;;;;;;;;
2022/03/01 13:41:12;;;;;;;;;;;9.80;77.80;;;;;;4968889;28;19945;-88
2022/03/01 13:43:45;;;;;;;;;;;9.80;77.70;;;;;;4998149;28;19949;-88
2022/03/01 13:46:21;;;;;;;;;;;9.80;77.70;;;;;;4980849;28;19918;-90
2022/03/01 13:49:16;;;;;;;;;;;;;;;;;;;;;
2022/03/01 13:52:11;;;;;;;;;;;9.90;77.90;;;;;;4993108;28;19949;-88
2022/03/01 13:58:14;;;;;;;;;;;;;;;;;;;;;
2022/03/01 14:00:50;;;;;;;;;;;9.90;76.40;;;;;;4959938;29;20426;-88
2022/03/01 14:03:39;;;;;;;;;;;10.00;76.30;;;;;;4940997;29;19914;-88
2022/03/01 14:06:07;;;;;;;;;;;9.90;76.00;;;;;;4939580;29;20322;-88
2022/03/01 14:08:36;;;;;;;;;;;10.00;76.00;;;;;;4950735;28;19914;-88
2022/03/01 14:11:41;;;;;;;;;;;;;;;;;;;;;
2022/03/01 14:14:30;;;;;;;;;;;10.00;76.30;;;;;;4960944;28;19917;-89
2022/03/01 14:20:00;;;;;;;;;;;10.00;76.20;;;;;;4897679;29;19915;-89
2022/03/01 14:22:50;;;;;;;;;;;10.00;76.00;;;;;;4956801;28;19981;-89
2022/03/01 14:25:19;;;;;;;;;;;10.00;75.90;;;;;;4945689;28;19915;-89
2022/03/01 14:27:53;;;;;;;;;;;9.90;76.00;;;;;;4959400;28;19934;-89
2022/03/01 14:33:32;;;;;;;;;;;;;;;;;;;;;
2022/03/01 14:36:11;;;;;;;;;;;;;;;;;;;;;
2022/03/01 14:39:18;;;;;;;;;;;9.90;76.30;;;;;;4976213;28;20281;-89
2022/03/01 14:42:01;;;;;;;;;;;;;;;;;;;;;
2022/03/01 14:44:37;;;;;;;;;;;10.00;76.40;;;;;;4976395;28;19922;-88
2022/03/01 14:47:15;;;;;;;;;;;9.90;76.00;;;;;;4959844;28;19914;-88
2022/03/01 14:50:09;;;;;;;;;;;9.90;76.10;;;;;;4960680;28;19929;-88
2022/03/01 14:55:43;;;;;;;;;;;;;;;;;;;;;
2022/03/01 14:58:12;;;;;;;;;;;9.90;76.60;;;;;;4893722;29;19918;-89
2022/03/01 15:00:41;;;;;;;;;;;9.90;76.80;;;;;;4886378;29;19916;-88
2022/03/01 15:03:46;;;;;;;;;;;;;;;;;;;;;
2022/03/01 15:06:31;;;;;;;;;;;9.90;76.80;;;;;;4902226;29;19926;-89
2022/03/01 15:09:16;;;;;;;;;;;;;;;;;;;;;
2022/03/01 15:15:05;;;;;;;;;;;9.90;76.40;;;;;;4897085;29;20339;-88
2022/03/01 15:18:23;;;;;;;;;;;9.90;76.30;;;;;;4905937;29;19975;-88
2022/03/01 15:20:50;;;;;;;;;;;9.90;76.30;;;;;;4995060;28;19938;-90
2022/03/01 15:26:23;;;;;;;;;;;9.90;76.30;;;;;;4940882;29;20376;-89
2022/03/01 15:29:14;;;;;;;;;;;9.90;76.50;;;;;;4960363;28;19922;-88
2022/03/01 15:31:45;;;;;;;;;;;9.80;76.50;;;;;;4948026;28;19988;-88
2022/03/01 15:34:31;;;;;;;;;;;;;;;;;;;;;
2022/03/01 15:37:23;;;;;;;;;;;9.80;76.30;;;;;;4960445;29;19915;-89
2022/03/01 15:40:04;;;;;;;;;;;;;;;;;;;;;
2022/03/01 15:43:13;;;;;;;;;;;9.70;74.70;;;;;;4959807;29;19917;-87
2022/03/01 15:46:01;;;;;;;;;;;;;;;;;;;;;
2022/03/01 15:48:50;;;;;;;;;;;9.70;75.20;;;;;;4972576;28;19920;-89
2022/03/01 15:51:43;;;;;;;;;;;;;;;;;;;;;
2022/03/01 15:54:58;;;;;;;;;;;9.70;75.60;;;;;;4920931;29;20013;-89
2022/03/01 15:57:53;;;;;;;;;;;9.60;75.60;;;;;;4914863;29;19911;-88
2022/03/01 16:03:33;;;;;;;;;;;9.70;76.00;;;;;;4899315;29;19912;-88
2022/03/01 16:09:21;;;;;;;;;;;;;;;;;;;;;
2022/03/01 16:11:47;;;;;;;;;;;9.60;75.90;;;;;;4977562;28;19910;-86
2022/03/01 16:14:23;;;;;;;;;;;;;;;;;;;;;
2022/03/01 16:17:19;;;;;;;;;;;;;;;;;;;;;
2022/03/01 16:20:05;;;;;;;;;;;;;;;;;;;;;
2022/03/01 16:22:36;;;;;;;;;;;9.50;76.30;;;;;;4962628;28;20088;-87
2022/03/01 16:25:16;;;;;;;;;;;9.50;76.30;;;;;;4977163;28;19913;-86
2022/03/01 16:28:15;;;;;;;;;;;;;;;;;;;;;
2022/03/01 16:30:44;;;;;;;;;;;9.50;75.80;;;;;;4978014;28;19924;-88
2022/03/01 16:33:17;;;;;;;;;;;9.40;76.10;;;;;;4960102;28;19979;-87
2022/03/01 16:36:01;;;;;;;;;;;9.40;75.90;;;;;;4960366;28;19914;-87
2022/03/01 16:38:37;;;;;;;;;;;9.40;76.30;;;;;;4960468;28;19914;-85
2022/03/01 16:41:07;;;;;;;;;;;9.40;76.90;;;;;;4960775;28;19914;-88
2022/03/01 16:43:38;;;;;;;;;;;9.30;77.10;;;;;;4963478;28;19989;-84
2022/03/01 16:46:09;;;;;;;;;;;9.30;77.40;;;;;;4951462;28;19931;-85
2022/03/01 16:51:54;;;;;;;;;;;9.30;78.00;;;;;;4901649;29;20340;-85
2022/03/01 16:58:10;;;;;;;;;;;;;;;;;;;;;
2022/03/01 17:00:49;;;;;;;;;;;;;;;;;;;;;
2022/03/01 17:03:48;;;;;;;;;;;;;;;;;;;;;
2022/03/01 17:06:15;;;;;;;;;;;9.10;78.70;;;;;;4980130;28;20004;-87
2022/03/01 17:08:43;;;;;;;;;;;9.10;78.60;;;;;;4959894;28;19914;-87
2022/03/01 17:11:13;;;;;;;;;;;9.10;78.20;;;;;;4959204;28;19918;-87
2022/03/01 17:13:44;;;;;;;;;;;9.10;78.20;;;;;;4943442;28;19914;-87
2022/03/01 17:16:10;;;;;;;;;;;9.10;78.20;;;;;;4960785;28;19914;-87
2022/03/01 17:18:59;;;;;;;;;;;9.10;78.40;;;;;;4959576;28;19917;-86
2022/03/01 17:21:31;;;;;;;;;;;9.00;78.80;;;;;;4975817;28;19933;-87
2022/03/01 17:23:59;;;;;;;;;;;9.00;79.10;;;;;;4959342;28;20380;-87
2022/03/01 17:26:32;;;;;;;;;;;9.00;79.00;;;;;;4958969;28;20274;-86
2022/03/01 17:29:12;;;;;;;;;;;9.00;79.20;;;;;;4963359;28;20290;-85
2022/03/01 17:31:40;;;;;;;;;;;9.00;79.30;;;;;;4959559;28;19914;-87
2022/03/01 17:34:16;;;;;;;;;;;9.00;79.10;;;;;;4958572;28;20386;-88
2022/03/01 17:36:45;;;;;;;;;;;9.00;79.20;;;;;;4958779;28;20290;-87
2022/03/01 17:39:13;;;;;;;;;;;8.90;79.30;;;;;;4958906;28;20366;-87
2022/03/01 17:41:46;;;;;;;;;;;8.90;79.70;;;;;;4959176;28;19910;-86
2022/03/01 17:44:15;;;;;;;;;;;8.90;80.10;;;;;;4959009;28;19965;-86
2022/03/01 17:46:43;;;;;;;;;;;8.90;80.20;;;;;;4976717;28;19922;-87
2022/03/01 17:49:16;;;;;;;;;;;8.90;80.30;;;;;;4958629;28;19914;-86
2022/03/01 17:51:52;;;;;;;;;;;8.80;80.20;;;;;;4959056;28;19926;-87
2022/03/01 17:54:23;;;;;;;;;;;8.80;80.60;;;;;;4959925;28;19917;-86
2022/03/01 17:56:51;;;;;;;;;;;8.80;80.80;;;;;;4959908;28;19910;-86
2022/03/01 18:02:13;;;;;;;;;;;8.80;81.20;;;;;;4977225;28;19933;-86
2022/03/01 18:04:49;;;;;;;;;;;;;;;;;;;;;
2022/03/01 18:07:18;;;;;;;;;;;8.70;81.70;;;;;;4976917;28;19910;-85
2022/03/01 18:09:57;;;;;;;;;;;8.60;82.00;;;;;;4961100;28;20289;-85
2022/03/01 18:15:43;;;;;;;;;;;;;;;;;;;;;
2022/03/01 18:18:14;;;;;;;;;;;8.70;81.60;;;;;;4979641;28;19990;-90
2022/03/01 18:20:52;;;;;;;;;;;8.70;81.80;;;;;;4965790;28;19910;-89
2022/03/01 18:26:39;;;;;;;;;;;8.70;81.70;;;;;;4948272;28;19985;-88
2022/03/01 18:29:13;;;;;;;;;;;8.60;81.60;;;;;;4978819;28;19945;-90
2022/03/01 18:32:04;;;;;;;;;;;8.70;81.40;;;;;;4986116;28;19970;-88
2022/03/01 18:35:21;;;;;;;;;;;;;;;;;;;;;
2022/03/01 18:37:49;;;;;;;;;;;8.70;81.10;;;;;;4939089;29;19947;-88
2022/03/01 18:40:44;;;;;;;;;;;8.70;81.10;;;;;;4929156;28;19917;-89
2022/03/01 18:43:26;;;;;;;;;;;;;;;;;;;;;
2022/03/01 18:46:05;;;;;;;;;;;8.60;81.40;;;;;;4969377;28;20017;-88
2022/03/01 18:51:54;;;;;;;;;;;8.60;81.80;;;;;;4976382;28;19914;-89
2022/03/01 18:54:20;;;;;;;;;;;8.60;81.70;;;;;;4953357;28;19915;-89
2022/03/01 18:57:16;;;;;;;;;;;8.60;81.40;;;;;;4968351;28;20355;-91
2022/03/01 19:00:19;;;;;;;;;;;;;;;;;;;;;
2022/03/01 19:03:05;;;;;;;;;;;8.60;81.20;;;;;;4982606;28;20009;-91
2022/03/01 19:08:49;;;;;;;;;;;8.60;80.50;;;;;;4959108;28;19922;-91
2022/03/01 19:14:57;;;;;;;;;;;8.60;80.80;;;;;;4905451;29;19918;-89
2022/03/01 19:18:00;;;;;;;;;;;8.60;80.70;;;;;;4926422;28;20000;-89
2022/03/01 19:24:01;;;;;;;;;;;8.60;80.40;;;;;;4922238;29;19978;-88
2022/03/01 19:26:27;;;;;;;;;;;8.60;80.50;;;;;;4950269;28;19910;-88
2022/03/01 19:32:01;;;;;;;;;;;8.50;80.80;;;;;;4982863;28;19929;-87
2022/03/01 19:34:33;;;;;;;;;;;8.50;81.20;;;;;;4983075;28;19968;-88
2022/03/01 19:37:02;;;;;;;;;;;8.50;81.40;;;;;;4985084;28;19917;-87
2022/03/01 19:39:51;;;;;;;;;;;8.50;81.10;;;;;;4966978;28;19918;-90
2022/03/01 19:42:20;;;;;;;;;;;8.50;80.70;;;;;;4966741;28;19910;-89